createdAt,value
2023-01-09T00:00:44.906Z,0.77
2023-01-09T00:03:50.236Z,1.08
2023-01-09T00:06:56.342Z,1.20
2023-01-09T00:10:01.897Z,1.10
2023-01-09T00:13:07.631Z,0.77
2023-01-09T00:16:13.771Z,0.90
2023-01-09T00:19:19.475Z,0.93
2023-01-09T00:22:24.852Z,0.75
2023-01-09T00:25:30.689Z,0.63
2023-01-09T00:28:36.236Z,0.60
2023-01-09T00:31:41.852Z,0.52
2023-01-09T00:34:47.939Z,0.55
2023-01-09T00:37:53.522Z,0.50
2023-01-09T00:41:00.206Z,0.80
2023-01-09T00:44:11.568Z,0.50
2023-01-09T00:47:43.100Z,0.70
2023-01-09T00:50:48.618Z,0.70
2023-01-09T00:53:54.983Z,0.50
2023-01-09T00:57:00.827Z,0.40
2023-01-09T01:00:07.601Z,0.45
2023-01-09T01:03:13.210Z,0.40
2023-01-09T01:06:37.097Z,0.70
2023-01-09T01:09:42.408Z,0.50
2023-01-09T01:12:49.471Z,0.60
2023-01-09T01:15:55.098Z,0.50
2023-01-09T01:19:00.673Z,0.40
2023-01-09T01:22:06.020Z,0.50
2023-01-09T01:25:13.298Z,0.40
2023-01-09T01:28:19.667Z,0.85
2023-01-09T01:31:25.334Z,0.47
2023-01-09T01:34:30.960Z,0.40
2023-01-09T01:37:38.487Z,0.40
2023-01-09T01:40:43.771Z,0.50
2023-01-09T01:43:55.764Z,0.50
2023-01-09T01:47:01.892Z,0.30
2023-01-09T01:50:22.500Z,0.47
2023-01-09T01:53:38.607Z,0.60
2023-01-09T01:56:49.490Z,0.60
2023-01-09T01:59:58.845Z,0.52
2023-01-09T02:03:06.007Z,0.55
2023-01-09T02:06:13.924Z,0.40
2023-01-09T02:09:23.179Z,0.50
2023-01-09T02:12:29.220Z,0.50
2023-01-09T02:16:03.660Z,0.60
2023-01-09T02:19:40.677Z,0.63
2023-01-09T02:23:11.638Z,0.70
2023-01-09T02:26:32.845Z,0.82
2023-01-09T02:30:22.600Z,0.90
2023-01-09T02:33:48.142Z,0.65
2023-01-09T02:37:25.910Z,1.00
2023-01-09T02:41:02.130Z,0.90
2023-01-09T02:44:20.683Z,1.15
2023-01-09T02:47:26.101Z,1.42
2023-01-09T02:50:44.251Z,1.90
2023-01-09T02:54:02.388Z,1.30
2023-01-09T02:57:16.951Z,1.23
2023-01-09T03:00:50.185Z,1.30
2023-01-09T03:04:22.538Z,1.25
2023-01-09T03:07:54.175Z,1.20
2023-01-09T03:11:06.818Z,2.58
2023-01-09T03:14:17.187Z,2.67
2023-01-09T03:17:40.347Z,2.80
2023-01-09T03:20:49.233Z,2.08
2023-01-09T03:23:59.213Z,1.67
2023-01-09T03:27:08.928Z,1.98
2023-01-09T03:30:14.596Z,1.90
2023-01-09T03:33:20.435Z,3.08
2023-01-09T03:36:25.848Z,2.78
2023-01-09T03:39:32.786Z,3.70
2023-01-09T03:42:38.418Z,4.60
2023-01-09T03:45:44.493Z,4.50
2023-01-09T03:48:50.350Z,5.30
2023-01-09T03:51:56.196Z,6.65
2023-01-09T03:55:01.329Z,6.63
2023-01-09T03:58:07.049Z,6.93
2023-01-09T04:01:15.822Z,6.90
2023-01-09T04:04:21.246Z,6.68
2023-01-09T04:07:27.015Z,5.75
2023-01-09T04:10:32.665Z,5.45
2023-01-09T04:13:38.643Z,5.30
2023-01-09T04:16:45.933Z,4.93
2023-01-09T04:19:51.531Z,5.25
2023-01-09T04:22:59.719Z,5.25
2023-01-09T04:26:06.040Z,4.82
2023-01-09T04:29:11.817Z,5.00
2023-01-09T04:32:17.513Z,4.38
2023-01-09T04:35:22.873Z,4.97
2023-01-09T04:38:28.223Z,5.63
2023-01-09T04:41:51.614Z,5.15
2023-01-09T04:44:57.353Z,4.45
2023-01-09T04:48:02.872Z,5.15
2023-01-09T04:51:08.505Z,3.97
2023-01-09T04:54:14.165Z,3.78
2023-01-09T04:57:20.515Z,3.40
2023-01-09T05:00:26.134Z,3.35
2023-01-09T05:03:31.477Z,3.60
2023-01-09T05:06:37.383Z,2.97
2023-01-09T05:09:44.095Z,2.88
2023-01-09T05:12:49.400Z,2.83
2023-01-09T05:15:55.096Z,2.70
2023-01-09T05:19:00.755Z,2.65
2023-01-09T05:22:06.655Z,2.92
2023-01-09T05:25:12.233Z,2.53
2023-01-09T05:28:17.581Z,2.70
2023-01-09T05:31:25.860Z,2.70
2023-01-09T05:34:31.381Z,2.80
2023-01-09T05:37:36.892Z,2.58
2023-01-09T05:40:41.881Z,2.78
2023-01-09T05:43:47.175Z,2.92
2023-01-09T05:46:52.586Z,2.47
2023-01-09T05:49:58.092Z,2.92
2023-01-09T05:53:03.828Z,2.83
2023-01-09T05:56:11.361Z,3.15
2023-01-09T05:59:17.690Z,3.05
2023-01-09T06:02:23.592Z,3.47
2023-01-09T06:05:28.876Z,3.00
2023-01-09T06:08:34.263Z,3.33
2023-01-09T06:11:40.427Z,3.38
2023-01-09T06:14:45.764Z,3.55
2023-01-09T06:17:51.525Z,3.42
2023-01-09T06:20:56.925Z,3.47
2023-01-09T06:24:02.013Z,3.60
2023-01-09T06:27:07.372Z,3.30
2023-01-09T06:30:13.086Z,3.03
2023-01-09T06:33:19.010Z,3.42
2023-01-09T06:36:24.401Z,3.72
2023-01-09T06:39:29.737Z,3.67
2023-01-09T06:42:35.526Z,3.40
2023-01-09T06:45:43.859Z,2.92
2023-01-09T06:48:49.340Z,2.70
2023-01-09T06:51:54.949Z,1.85
2023-01-09T06:55:00.800Z,1.92
2023-01-09T06:58:05.812Z,1.90
2023-01-09T07:01:11.125Z,1.48
2023-01-09T07:04:18.038Z,1.58
2023-01-09T07:07:23.733Z,1.50
2023-01-09T07:10:29.422Z,1.45
2023-01-09T07:13:34.892Z,2.13
2023-01-09T07:16:40.517Z,1.77
2023-01-09T07:19:45.937Z,2.10
2023-01-09T07:22:51.337Z,1.83
2023-01-09T07:25:56.868Z,2.40
2023-01-09T07:29:02.684Z,2.90
2023-01-09T07:32:08.348Z,2.75
2023-01-09T07:35:13.796Z,2.30
2023-01-09T07:38:19.416Z,2.50
2023-01-09T07:41:25.261Z,2.45
2023-01-09T07:44:31.035Z,3.13
2023-01-09T07:47:36.451Z,3.15
2023-01-09T07:50:41.893Z,3.30
2023-01-09T07:53:47.361Z,3.67
2023-01-09T07:56:53.189Z,4.25
2023-01-09T08:00:00.852Z,4.50
2023-01-09T08:03:06.304Z,4.57
2023-01-09T08:06:12.258Z,6.68
2023-01-09T08:09:18.577Z,9.60
2023-01-09T08:12:25.399Z,9.75
2023-01-09T08:15:31.331Z,10.50
2023-01-09T08:18:36.881Z,9.40
2023-01-09T08:21:42.245Z,9.15
2023-01-09T08:24:47.602Z,9.50
2023-01-09T08:27:53.091Z,8.82
2023-01-09T08:30:58.834Z,8.80
2023-01-09T08:34:04.645Z,9.45
2023-01-09T08:37:10.090Z,9.35
2023-01-09T08:40:17.187Z,8.93
2023-01-09T08:43:41.369Z,7.72
2023-01-09T08:47:05.342Z,7.10
2023-01-09T08:50:11.411Z,6.68
2023-01-09T08:53:17.074Z,7.68
2023-01-09T08:56:22.794Z,6.32
2023-01-09T08:59:28.343Z,6.38
2023-01-09T09:02:33.796Z,6.35
2023-01-09T09:05:39.339Z,7.18
2023-01-09T09:08:45.108Z,6.93
2023-01-09T09:11:50.791Z,8.43
2023-01-09T09:15:15.452Z,6.70
2023-01-09T09:18:20.945Z,6.03
2023-01-09T09:21:26.528Z,6.15
2023-01-09T09:24:31.885Z,6.45
2023-01-09T09:27:38.064Z,7.05
2023-01-09T09:30:43.411Z,8.00
2023-01-09T09:33:48.941Z,7.63
2023-01-09T09:36:54.472Z,9.88
2023-01-09T09:40:09.794Z,9.65
2023-01-09T09:44:07.673Z,10.85
2023-01-09T09:47:50.877Z,11.25
2023-01-09T09:51:14.778Z,11.18
2023-01-09T09:54:27.912Z,11.02
2023-01-09T09:57:37.381Z,10.25
2023-01-09T10:00:43.382Z,11.05
2023-01-09T10:03:57.022Z,12.02
2023-01-09T10:07:12.158Z,12.75
2023-01-09T10:10:34.093Z,11.50
2023-01-09T10:13:58.200Z,12.57
2023-01-09T10:17:19.272Z,12.50
2023-01-09T10:20:38.820Z,12.20
2023-01-09T10:24:03.098Z,13.63
2023-01-09T10:27:49.794Z,12.85
2023-01-09T10:31:31.640Z,13.20
2023-01-09T10:37:49.009Z,11.95
2023-01-09T10:41:10.735Z,12.43
2023-01-09T10:47:34.541Z,11.20
2023-01-09T10:50:43.668Z,10.40
2023-01-09T10:53:52.887Z,10.95
2023-01-09T10:57:11.257Z,11.27
2023-01-09T11:00:23.372Z,10.52
2023-01-09T11:03:29.491Z,10.43
2023-01-09T11:06:47.339Z,10.50
2023-01-09T11:10:00.333Z,12.30
2023-01-09T11:13:18.951Z,13.43
2023-01-09T11:16:24.407Z,15.32
2023-01-09T11:19:33.734Z,14.85
2023-01-09T11:22:45.302Z,15.73
2023-01-09T11:25:56.546Z,14.65
2023-01-09T11:29:12.497Z,16.13
2023-01-09T11:32:25.217Z,15.05
2023-01-09T11:35:34.780Z,14.32
2023-01-09T11:38:49.689Z,13.65
2023-01-09T11:41:58.524Z,12.68
2023-01-09T11:45:04.442Z,13.32
2023-01-09T11:48:29.703Z,13.18
2023-01-09T11:51:37.079Z,12.98
2023-01-09T11:54:49.910Z,11.98
2023-01-09T11:57:55.529Z,11.40
2023-01-09T12:01:40.932Z,12.38
2023-01-09T12:05:23.626Z,11.77
2023-01-09T12:08:56.564Z,11.10
2023-01-09T12:12:38.782Z,10.77
2023-01-09T12:16:02.387Z,10.88
2023-01-09T12:19:24.851Z,11.25
2023-01-09T12:22:39.083Z,11.25
2023-01-09T12:26:09.650Z,11.32
2023-01-09T12:29:34.225Z,10.65
2023-01-09T12:32:54.551Z,10.70
2023-01-09T12:36:10.575Z,10.20
2023-01-09T12:39:47.892Z,10.43
2023-01-09T12:42:55.920Z,11.88
2023-01-09T12:46:23.550Z,11.73
2023-01-09T12:49:53.256Z,12.80
2023-01-09T12:53:31.544Z,13.52
2023-01-09T12:56:45.834Z,14.70
2023-01-09T12:59:56.678Z,16.02
2023-01-09T13:03:17.987Z,17.42
2023-01-09T13:06:24.964Z,18.20
2023-01-09T13:09:48.329Z,16.40
2023-01-09T13:12:55.467Z,16.77
2023-01-09T13:16:14.152Z,15.57
2023-01-09T13:19:28.567Z,15.68
2023-01-09T13:22:34.842Z,14.75
2023-01-09T13:25:51.874Z,14.82
2023-01-09T13:29:28.963Z,12.57
2023-01-09T13:32:43.225Z,13.35
2023-01-09T13:35:54.451Z,14.55
2023-01-09T13:42:46.336Z,12.07
2023-01-09T13:45:53.534Z,13.50
2023-01-09T13:48:59.615Z,11.65
2023-01-09T13:52:26.579Z,12.55
2023-01-09T13:55:36.381Z,10.80
2023-01-09T13:59:00.392Z,11.10
2023-01-09T14:02:35.048Z,11.75
2023-01-09T14:05:40.223Z,12.30
2023-01-09T14:08:47.420Z,10.80
2023-01-09T14:12:05.247Z,11.00
2023-01-09T14:15:45.397Z,9.85
2023-01-09T14:19:14.924Z,8.80
2023-01-09T14:22:45.441Z,9.13
2023-01-09T14:26:01.532Z,7.68
2023-01-09T14:29:44.586Z,6.07
2023-01-09T14:33:15.575Z,4.57
2023-01-09T14:36:27.422Z,3.03
2023-01-09T14:42:42.132Z,1.83
2023-01-09T14:45:50.052Z,1.77
2023-01-09T14:49:22.638Z,2.80
2023-01-09T14:52:35.930Z,3.10
2023-01-09T14:55:55.568Z,3.55
2023-01-09T14:59:06.582Z,4.05
2023-01-09T15:02:12.035Z,3.13
2023-01-09T15:05:22.622Z,3.17
2023-01-09T15:08:29.149Z,2.70
2023-01-09T15:11:38.380Z,3.03
2023-01-09T15:14:46.120Z,2.85
2023-01-09T15:17:58.341Z,1.85
2023-01-09T15:21:04.366Z,1.27
2023-01-09T15:24:22.169Z,1.60
2023-01-09T15:27:27.795Z,1.15
2023-01-09T15:30:36.185Z,1.67
2023-01-09T15:33:45.026Z,1.73
2023-01-09T15:36:52.916Z,2.13
2023-01-09T15:40:01.686Z,2.42
2023-01-09T15:43:07.704Z,2.65
2023-01-09T15:46:16.496Z,3.50
2023-01-09T15:49:21.917Z,3.15
2023-01-09T15:52:27.951Z,2.90
2023-01-09T15:55:35.455Z,2.67
2023-01-09T15:58:47.443Z,4.38
2023-01-09T16:02:23.787Z,5.18
2023-01-09T16:05:32.057Z,8.50
2023-01-09T16:08:48.430Z,10.82
2023-01-09T16:11:57.770Z,9.93
2023-01-09T16:15:03.018Z,9.75
2023-01-09T16:18:15.639Z,11.25
2023-01-09T16:21:33.587Z,11.48
2023-01-09T16:24:41.975Z,12.15
2023-01-09T16:28:19.937Z,12.35
2023-01-09T16:31:29.945Z,13.35
2023-01-09T16:34:36.338Z,12.73
2023-01-09T16:37:41.953Z,12.13
2023-01-09T16:41:19.278Z,12.18
2023-01-09T16:44:25.000Z,27.42
2023-01-09T16:47:30.963Z,12.65
2023-01-09T16:50:36.971Z,12.20
2023-01-09T16:53:42.899Z,13.18
2023-01-09T16:56:51.312Z,11.63
2023-01-09T17:00:00.435Z,12.20
2023-01-09T17:03:05.889Z,13.25
2023-01-09T17:06:19.425Z,13.32
2023-01-09T17:09:27.799Z,12.05
2023-01-09T17:12:33.388Z,13.20
2023-01-09T17:15:39.431Z,11.98
2023-01-09T17:18:45.759Z,12.65
2023-01-09T17:21:51.414Z,16.40
2023-01-09T17:25:15.918Z,14.75
2023-01-09T17:28:33.579Z,13.88
2023-01-09T17:31:38.959Z,13.25
2023-01-09T17:34:44.604Z,12.50
2023-01-09T17:37:50.177Z,14.38
2023-01-09T17:40:56.077Z,13.60
2023-01-09T17:44:02.808Z,14.88
2023-01-09T17:47:16.212Z,14.55
2023-01-09T17:50:21.814Z,14.30
2023-01-09T17:53:27.162Z,13.65
2023-01-09T17:56:35.145Z,12.48
2023-01-09T17:59:40.729Z,44.35
2023-01-09T18:02:46.675Z,18.02
2023-01-09T18:05:53.134Z,15.07
2023-01-09T18:08:58.645Z,15.75
2023-01-09T18:12:04.211Z,14.90
2023-01-09T18:15:10.333Z,14.57
2023-01-09T18:18:16.607Z,13.65
2023-01-09T18:21:24.301Z,16.85
2023-01-09T18:24:29.768Z,17.20
2023-01-09T18:27:38.307Z,16.83
2023-01-09T18:30:45.601Z,16.58
2023-01-09T18:33:53.021Z,14.45
2023-01-09T18:36:58.381Z,14.55
2023-01-09T18:40:04.989Z,18.80
2023-01-09T18:43:10.763Z,19.20
2023-01-09T18:46:20.819Z,17.55
2023-01-09T18:49:26.062Z,17.25
2023-01-09T18:52:31.720Z,16.90
2023-01-09T18:55:37.859Z,18.83
2023-01-09T18:58:43.618Z,19.67
2023-01-09T19:01:49.446Z,18.90
2023-01-09T19:04:54.858Z,20.70
2023-01-09T19:08:00.121Z,22.38
2023-01-09T19:11:06.102Z,22.85
2023-01-09T19:14:11.960Z,20.20
2023-01-09T19:17:17.505Z,17.77
2023-01-09T19:20:23.599Z,17.48
2023-01-09T19:23:29.813Z,18.00
2023-01-09T19:26:35.829Z,17.00
2023-01-09T19:29:41.265Z,17.42
2023-01-09T19:32:46.365Z,17.88
2023-01-09T19:35:53.224Z,18.45
2023-01-09T19:39:03.514Z,32.08
2023-01-09T19:42:08.880Z,21.20
2023-01-09T19:45:14.311Z,20.05
2023-01-09T19:48:20.099Z,16.50
2023-01-09T19:51:26.008Z,15.60
2023-01-09T19:54:33.082Z,15.60
2023-01-09T19:57:38.625Z,15.30
2023-01-09T20:00:44.509Z,14.38
2023-01-09T20:03:51.547Z,13.57
2023-01-09T20:06:57.087Z,15.27
2023-01-09T20:10:02.947Z,15.25
2023-01-09T20:13:08.887Z,16.50
2023-01-09T20:16:22.894Z,17.17
2023-01-09T20:19:30.550Z,19.95
2023-01-09T20:22:36.381Z,21.35
2023-01-09T20:25:42.006Z,19.60
2023-01-09T20:28:47.975Z,18.30
2023-01-09T20:31:53.740Z,18.55
2023-01-09T20:34:59.216Z,17.65
2023-01-09T20:38:05.203Z,17.63
2023-01-09T20:41:22.939Z,17.13
2023-01-09T20:44:29.020Z,16.88
2023-01-09T20:47:34.823Z,15.85
2023-01-09T20:50:41.191Z,15.13
2023-01-09T20:53:55.779Z,17.58
2023-01-09T20:57:01.413Z,16.20
2023-01-09T21:00:08.604Z,15.02
2023-01-09T21:03:16.957Z,15.57
2023-01-09T21:06:25.686Z,15.25
2023-01-09T21:09:31.819Z,15.25
2023-01-09T21:12:38.889Z,14.45
2023-01-09T21:15:44.889Z,13.40
2023-01-09T21:18:51.033Z,16.35
2023-01-09T21:21:56.613Z,14.63
2023-01-09T21:25:03.637Z,15.32
2023-01-09T21:28:14.921Z,15.18
2023-01-09T21:31:25.551Z,14.98
2023-01-09T21:34:31.114Z,15.70
2023-01-09T21:37:37.827Z,16.73
2023-01-09T21:40:43.980Z,14.75
2023-01-09T21:44:07.933Z,15.00
2023-01-09T21:47:13.749Z,14.85
2023-01-09T21:50:19.691Z,15.45
2023-01-09T21:53:25.174Z,16.60
2023-01-09T21:56:30.521Z,16.80
2023-01-09T21:59:36.066Z,15.18
2023-01-09T22:02:41.419Z,15.63
2023-01-09T22:05:47.046Z,14.80
2023-01-09T22:08:53.205Z,15.68
2023-01-09T22:11:58.651Z,15.63
2023-01-09T22:15:05.519Z,15.23
2023-01-09T22:18:11.437Z,15.73
2023-01-09T22:21:17.887Z,15.98
2023-01-09T22:24:23.306Z,15.70
2023-01-09T22:27:28.588Z,16.02
2023-01-09T22:30:34.181Z,16.15
2023-01-09T22:33:39.872Z,16.38
2023-01-09T22:36:46.489Z,15.52
2023-01-09T22:39:51.738Z,16.73
2023-01-09T22:42:57.134Z,15.93
2023-01-09T22:46:04.410Z,15.55
2023-01-09T22:49:12.400Z,14.32
2023-01-09T22:52:17.832Z,15.95
2023-01-09T22:55:23.749Z,13.82
2023-01-09T22:58:32.780Z,13.85
2023-01-09T23:01:38.378Z,13.60
2023-01-09T23:04:43.903Z,13.50
2023-01-09T23:07:49.253Z,14.40
2023-01-09T23:10:55.013Z,16.60
2023-01-09T23:14:00.307Z,16.67
2023-01-09T23:17:08.519Z,18.92
2023-01-09T23:20:14.072Z,17.15
2023-01-09T23:23:21.271Z,16.20
2023-01-09T23:26:26.701Z,15.95
2023-01-09T23:29:33.049Z,15.48
2023-01-09T23:32:39.138Z,14.68
2023-01-09T23:35:45.164Z,14.73
2023-01-09T23:38:50.458Z,14.05
2023-01-09T23:42:13.685Z,15.88
2023-01-09T23:45:18.987Z,14.15
2023-01-09T23:48:24.624Z,16.92
2023-01-09T23:51:30.297Z,15.98
2023-01-09T23:54:36.454Z,13.63
2023-01-09T23:57:41.748Z,14.15
